sensor_id;sensor_type;location;lat;lon;timestamp;pressure;altitude;pressure_sealevel;temperature;humidity
72909;BME280;61051;62.624;17.950;2023-05-23T00:02:11;101685.44;;;6.00;81.02
72909;BME280;61051;62.624;17.950;2023-05-23T00:04:40;101686.43;;;5.88;80.98
72909;BME280;61051;62.624;17.950;2023-05-23T00:07:09;101683.47;;;5.74;82.16
72909;BME280;61051;62.624;17.950;2023-05-23T00:09:36;101681.16;;;5.82;82.40
72909;BME280;61051;62.624;17.950;2023-05-23T00:12:06;101677.07;;;5.76;82.39
72909;BME280;61051;62.624;17.950;2023-05-23T00:14:34;101678.01;;;5.84;82.25
72909;BME280;61051;62.624;17.950;2023-05-23T00:17:04;101677.02;;;5.88;81.63
72909;BME280;61051;62.624;17.950;2023-05-23T00:19:32;101681.12;;;5.77;81.28
72909;BME280;61051;62.624;17.950;2023-05-23T00:22:00;101680.50;;;5.62;81.77
72909;BME280;61051;62.624;17.950;2023-05-23T00:24:29;101679.36;;;5.69;81.84
72909;BME280;61051;62.624;17.950;2023-05-23T00:26:58;101677.00;;;5.64;82.32
72909;BME280;61051;62.624;17.950;2023-05-23T00:29:27;101673.60;;;5.73;83.12
72909;BME280;61051;62.624;17.950;2023-05-23T00:31:55;101670.59;;;5.75;82.80
72909;BME280;61051;62.624;17.950;2023-05-23T00:34:24;101661.98;;;5.66;81.43
72909;BME280;61051;62.624;17.950;2023-05-23T00:36:53;101659.58;;;5.65;80.22
72909;BME280;61051;62.624;17.950;2023-05-23T00:39:21;101654.09;;;5.81;81.01
72909;BME280;61051;62.624;17.950;2023-05-23T00:41:50;101649.96;;;5.79;81.68
72909;BME280;61051;62.624;17.950;2023-05-23T00:44:20;101647.04;;;5.70;81.33
72909;BME280;61051;62.624;17.950;2023-05-23T00:46:51;101647.39;;;5.77;81.12
72909;BME280;61051;62.624;17.950;2023-05-23T00:49:22;101643.84;;;5.58;81.86
72909;BME280;61051;62.624;17.950;2023-05-23T00:51:51;101642.13;;;5.69;81.53
72909;BME280;61051;62.624;17.950;2023-05-23T00:54:24;101636.30;;;5.67;82.71
72909;BME280;61051;62.624;17.950;2023-05-23T00:56:53;101631.98;;;5.53;82.13
72909;BME280;61051;62.624;17.950;2023-05-23T00:59:23;101627.72;;;5.62;82.28
72909;BME280;61051;62.624;17.950;2023-05-23T01:01:53;101622.41;;;5.46;82.32
72909;BME280;61051;62.624;17.950;2023-05-23T01:04:24;101614.73;;;5.53;82.09
72909;BME280;61051;62.624;17.950;2023-05-23T01:06:53;101609.71;;;5.53;81.73
72909;BME280;61051;62.624;17.950;2023-05-23T01:09:22;101609.38;;;5.47;80.96
72909;BME280;61051;62.624;17.950;2023-05-23T01:12:16;101605.66;;;5.49;81.80
72909;BME280;61051;62.624;17.950;2023-05-23T01:14:55;101603.49;;;5.62;82.17
72909;BME280;61051;62.624;17.950;2023-05-23T01:17:33;101603.23;;;5.53;80.94
72909;BME280;61051;62.624;17.950;2023-05-23T01:20:10;101603.58;;;5.38;81.19
72909;BME280;61051;62.624;17.950;2023-05-23T01:23:03;101600.93;;;5.36;81.66
72909;BME280;61051;62.624;17.950;2023-05-23T01:25:47;101596.43;;;5.42;81.95
72909;BME280;61051;62.624;17.950;2023-05-23T01:28:19;101590.26;;;5.25;82.40
72909;BME280;61051;62.624;17.950;2023-05-23T01:30:51;101589.43;;;5.34;83.17
72909;BME280;61051;62.624;17.950;2023-05-23T01:33:22;101593.27;;;5.42;83.33
72909;BME280;61051;62.624;17.950;2023-05-23T01:35:53;101599.59;;;5.29;83.14
72909;BME280;61051;62.624;17.950;2023-05-23T01:38:24;101605.83;;;5.32;83.23
72909;BME280;61051;62.624;17.950;2023-05-23T01:40:53;101602.03;;;5.42;83.36
72909;BME280;61051;62.624;17.950;2023-05-23T01:43:22;101597.73;;;5.33;83.69
72909;BME280;61051;62.624;17.950;2023-05-23T01:45:53;101591.68;;;5.34;83.97
72909;BME280;61051;62.624;17.950;2023-05-23T01:48:24;101582.95;;;5.56;83.94
72909;BME280;61051;62.624;17.950;2023-05-23T01:50:54;101584.43;;;5.69;83.49
72909;BME280;61051;62.624;17.950;2023-05-23T01:53:23;101584.10;;;5.65;83.78
72909;BME280;61051;62.624;17.950;2023-05-23T01:55:53;101581.96;;;5.78;83.41
72909;BME280;61051;62.624;17.950;2023-05-23T01:58:22;101578.15;;;5.76;82.43
72909;BME280;61051;62.624;17.950;2023-05-23T02:00:53;101570.08;;;5.73;81.65
72909;BME280;61051;62.624;17.950;2023-05-23T02:03:21;101565.79;;;5.72;82.77
72909;BME280;61051;62.624;17.950;2023-05-23T02:05:51;101564.62;;;5.70;83.90
72909;BME280;61051;62.624;17.950;2023-05-23T02:08:20;101563.29;;;5.61;82.78
72909;BME280;61051;62.624;17.950;2023-05-23T02:10:49;101559.10;;;5.54;83.54
72909;BME280;61051;62.624;17.950;2023-05-23T02:13:18;101555.04;;;5.69;83.84
72909;BME280;61051;62.624;17.950;2023-05-23T02:15:48;101551.29;;;5.91;84.29
72909;BME280;61051;62.624;17.950;2023-05-23T02:18:16;101538.42;;;5.89;84.02
72909;BME280;61051;62.624;17.950;2023-05-23T02:20:44;101538.11;;;5.93;83.35
72909;BME280;61051;62.624;17.950;2023-05-23T02:23:12;101534.49;;;5.91;82.70
72909;BME280;61051;62.624;17.950;2023-05-23T02:25:40;101531.97;;;6.02;81.98
72909;BME280;61051;62.624;17.950;2023-05-23T02:28:09;101531.03;;;6.00;82.68
72909;BME280;61051;62.624;17.950;2023-05-23T02:30:38;101529.49;;;6.22;82.64
72909;BME280;61051;62.624;17.950;2023-05-23T02:33:06;101528.13;;;6.16;82.60
72909;BME280;61051;62.624;17.950;2023-05-23T02:35:35;101527.29;;;6.25;82.11
72909;BME280;61051;62.624;17.950;2023-05-23T02:38:03;101522.87;;;6.24;81.52
72909;BME280;61051;62.624;17.950;2023-05-23T02:40:31;101525.34;;;6.35;81.60
72909;BME280;61051;62.624;17.950;2023-05-23T02:43:00;101521.70;;;6.54;81.67
72909;BME280;61051;62.624;17.950;2023-05-23T02:45:29;101521.77;;;6.63;80.71
72909;BME280;61051;62.624;17.950;2023-05-23T02:47:58;101521.34;;;6.71;80.55
72909;BME280;61051;62.624;17.950;2023-05-23T02:50:27;101518.98;;;6.79;79.95
72909;BME280;61051;62.624;17.950;2023-05-23T02:52:56;101517.46;;;6.82;79.64
72909;BME280;61051;62.624;17.950;2023-05-23T02:55:24;101514.00;;;6.82;79.06
72909;BME280;61051;62.624;17.950;2023-05-23T02:57:53;101511.27;;;7.01;78.68
72909;BME280;61051;62.624;17.950;2023-05-23T03:00:22;101512.61;;;7.13;78.93
72909;BME280;61051;62.624;17.950;2023-05-23T03:02:52;101510.18;;;7.23;78.61
72909;BME280;61051;62.624;17.950;2023-05-23T03:05:21;101507.57;;;7.37;78.23
72909;BME280;61051;62.624;17.950;2023-05-23T03:07:50;101504.03;;;7.50;79.55
72909;BME280;61051;62.624;17.950;2023-05-23T03:10:21;101506.55;;;7.62;78.79
72909;BME280;61051;62.624;17.950;2023-05-23T03:12:50;101501.84;;;7.57;77.42
72909;BME280;61051;62.624;17.950;2023-05-23T03:15:19;101497.73;;;7.68;77.22
72909;BME280;61051;62.624;17.950;2023-05-23T03:17:47;101495.00;;;7.87;77.10
72909;BME280;61051;62.624;17.950;2023-05-23T03:20:15;101488.50;;;7.87;76.99
72909;BME280;61051;62.624;17.950;2023-05-23T03:22:44;101484.78;;;8.02;76.45
72909;BME280;61051;62.624;17.950;2023-05-23T03:25:14;101490.68;;;8.00;76.15
72909;BME280;61051;62.624;17.950;2023-05-23T03:27:42;101488.12;;;8.21;74.91
72909;BME280;61051;62.624;17.950;2023-05-23T03:30:12;101485.05;;;8.42;74.07
72909;BME280;61051;62.624;17.950;2023-05-23T03:32:41;101487.53;;;8.48;73.75
72909;BME280;61051;62.624;17.950;2023-05-23T03:35:09;101486.85;;;8.47;73.79
72909;BME280;61051;62.624;17.950;2023-05-23T03:37:37;101486.60;;;8.71;73.34
72909;BME280;61051;62.624;17.950;2023-05-23T03:40:07;101480.71;;;8.85;72.55
72909;BME280;61051;62.624;17.950;2023-05-23T03:42:37;101473.14;;;8.93;71.75
72909;BME280;61051;62.624;17.950;2023-05-23T03:45:06;101470.60;;;8.93;71.57
72909;BME280;61051;62.624;17.950;2023-05-23T03:47:35;101472.21;;;8.99;71.35
72909;BME280;61051;62.624;17.950;2023-05-23T03:50:05;101471.90;;;9.11;71.82
72909;BME280;61051;62.624;17.950;2023-05-23T03:52:34;101470.08;;;9.15;71.86
72909;BME280;61051;62.624;17.950;2023-05-23T03:55:03;101468.62;;;9.13;71.34
72909;BME280;61051;62.624;17.950;2023-05-23T03:57:31;101461.90;;;9.33;71.54
72909;BME280;61051;62.624;17.950;2023-05-23T04:03:20;101462.17;;;9.25;72.04
72909;BME280;61051;62.624;17.950;2023-05-23T04:05:48;101457.09;;;9.23;72.29
72909;BME280;61051;62.624;17.950;2023-05-23T04:08:17;101454.04;;;9.38;72.00
72909;BME280;61051;62.624;17.950;2023-05-23T04:10:45;101448.84;;;9.56;71.46
72909;BME280;61051;62.624;17.950;2023-05-23T04:13:14;101442.15;;;9.50;70.65
72909;BME280;61051;62.624;17.950;2023-05-23T04:15:43;101441.86;;;9.74;70.90
72909;BME280;61051;62.624;17.950;2023-05-23T04:18:13;101437.34;;;9.76;70.56
72909;BME280;61051;62.624;17.950;2023-05-23T04:20:41;101436.10;;;9.69;70.40
72909;BME280;61051;62.624;17.950;2023-05-23T04:23:09;101430.81;;;9.81;70.61
72909;BME280;61051;62.624;17.950;2023-05-23T04:25:37;101429.96;;;9.93;70.26
72909;BME280;61051;62.624;17.950;2023-05-23T04:28:05;101423.53;;;9.98;69.91
72909;BME280;61051;62.624;17.950;2023-05-23T04:30:34;101418.97;;;10.28;68.17
72909;BME280;61051;62.624;17.950;2023-05-23T04:33:02;101417.25;;;10.19;68.25
72909;BME280;61051;62.624;17.950;2023-05-23T04:35:31;101412.87;;;10.33;68.03
72909;BME280;61051;62.624;17.950;2023-05-23T04:38:00;101410.90;;;10.28;68.52
72909;BME280;61051;62.624;17.950;2023-05-23T04:40:29;101403.03;;;10.25;68.12
72909;BME280;61051;62.624;17.950;2023-05-23T04:42:59;101394.66;;;10.43;68.09
72909;BME280;61051;62.624;17.950;2023-05-23T04:45:28;101395.88;;;10.53;67.16
72909;BME280;61051;62.624;17.950;2023-05-23T04:47:58;101399.26;;;10.72;67.23
72909;BME280;61051;62.624;17.950;2023-05-23T04:50:26;101397.41;;;10.72;67.22
72909;BME280;61051;62.624;17.950;2023-05-23T04:52:56;101396.59;;;10.68;66.24
72909;BME280;61051;62.624;17.950;2023-05-23T04:55:25;101399.99;;;10.77;66.12
72909;BME280;61051;62.624;17.950;2023-05-23T04:57:54;101399.23;;;10.75;65.35
72909;BME280;61051;62.624;17.950;2023-05-23T05:00:22;101398.58;;;10.94;64.96
72909;BME280;61051;62.624;17.950;2023-05-23T05:02:52;101398.33;;;10.99;64.11
72909;BME280;61051;62.624;17.950;2023-05-23T05:05:21;101394.81;;;10.91;64.25
72909;BME280;61051;62.624;17.950;2023-05-23T05:07:50;101392.66;;;10.99;64.88
72909;BME280;61051;62.624;17.950;2023-05-23T05:10:19;101392.90;;;10.93;65.60
72909;BME280;61051;62.624;17.950;2023-05-23T05:12:48;101392.49;;;11.14;65.16
72909;BME280;61051;62.624;17.950;2023-05-23T05:15:18;101392.09;;;11.30;64.74
72909;BME280;61051;62.624;17.950;2023-05-23T05:17:46;101392.53;;;11.50;64.12
72909;BME280;61051;62.624;17.950;2023-05-23T05:20:15;101383.72;;;11.78;62.75
72909;BME280;61051;62.624;17.950;2023-05-23T05:22:44;101380.34;;;11.86;62.91
72909;BME280;61051;62.624;17.950;2023-05-23T05:25:13;101380.43;;;12.03;62.25
72909;BME280;61051;62.624;17.950;2023-05-23T05:27:42;101382.35;;;12.01;62.24
72909;BME280;61051;62.624;17.950;2023-05-23T05:30:11;101380.54;;;12.01;61.19
72909;BME280;61051;62.624;17.950;2023-05-23T05:32:40;101379.91;;;12.10;61.29
72909;BME280;61051;62.624;17.950;2023-05-23T05:35:08;101375.49;;;12.11;61.03
72909;BME280;61051;62.624;17.950;2023-05-23T05:37:37;101372.89;;;12.18;61.62
72909;BME280;61051;62.624;17.950;2023-05-23T05:40:06;101375.85;;;12.24;61.63
72909;BME280;61051;62.624;17.950;2023-05-23T05:42:34;101373.96;;;12.25;62.12
72909;BME280;61051;62.624;17.950;2023-05-23T05:45:04;101377.34;;;12.35;61.86
72909;BME280;61051;62.624;17.950;2023-05-23T05:47:32;101378.38;;;12.50;62.38
72909;BME280;61051;62.624;17.950;2023-05-23T05:50:01;101376.84;;;12.79;61.75
72909;BME280;61051;62.624;17.950;2023-05-23T05:52:31;101376.53;;;13.06;61.34
72909;BME280;61051;62.624;17.950;2023-05-23T05:54:59;101376.20;;;13.04;59.97
72909;BME280;61051;62.624;17.950;2023-05-23T05:57:29;101371.75;;;13.27;59.32
72909;BME280;61051;62.624;17.950;2023-05-23T05:59:58;101368.79;;;13.64;57.16
72909;BME280;61051;62.624;17.950;2023-05-23T06:02:27;101365.14;;;13.66;55.84
72909;BME280;61051;62.624;17.950;2023-05-23T06:04:57;101360.50;;;13.72;56.77
72909;BME280;61051;62.624;17.950;2023-05-23T06:07:27;101357.56;;;13.77;55.37
72909;BME280;61051;62.624;17.950;2023-05-23T06:09:57;101356.54;;;13.70;54.80
72909;BME280;61051;62.624;17.950;2023-05-23T06:12:24;101351.14;;;13.83;55.68
72909;BME280;61051;62.624;17.950;2023-05-23T06:14:53;101340.95;;;13.95;54.22
72909;BME280;61051;62.624;17.950;2023-05-23T06:17:22;101335.81;;;13.94;53.47
72909;BME280;61051;62.624;17.950;2023-05-23T06:19:50;101331.77;;;13.95;53.28
72909;BME280;61051;62.624;17.950;2023-05-23T06:22:18;101333.59;;;14.03;54.89
72909;BME280;61051;62.624;17.950;2023-05-23T06:24:47;101331.96;;;13.98;54.71
72909;BME280;61051;62.624;17.950;2023-05-23T06:27:15;101332.17;;;13.93;57.16
72909;BME280;61051;62.624;17.950;2023-05-23T06:29:43;101331.05;;;13.80;55.84
72909;BME280;61051;62.624;17.950;2023-05-23T06:32:11;101334.62;;;13.62;57.24
72909;BME280;61051;62.624;17.950;2023-05-23T06:34:40;101336.12;;;13.53;56.50
72909;BME280;61051;62.624;17.950;2023-05-23T06:37:08;101336.09;;;13.64;57.14
72909;BME280;61051;62.624;17.950;2023-05-23T06:39:36;101330.66;;;13.82;54.74
72909;BME280;61051;62.624;17.950;2023-05-23T06:42:05;101328.63;;;13.90;55.72
72909;BME280;61051;62.624;17.950;2023-05-23T06:44:33;101329.81;;;14.22;54.02
72909;BME280;61051;62.624;17.950;2023-05-23T06:47:02;101335.14;;;14.52;53.34
72909;BME280;61051;62.624;17.950;2023-05-23T06:49:30;101336.36;;;14.66;52.80
72909;BME280;61051;62.624;17.950;2023-05-23T06:51:58;101339.30;;;14.92;52.55
72909;BME280;61051;62.624;17.950;2023-05-23T06:54:26;101336.31;;;15.08;52.45
72909;BME280;61051;62.624;17.950;2023-05-23T06:56:55;101332.37;;;15.47;49.70
72909;BME280;61051;62.624;17.950;2023-05-23T06:59:24;101328.26;;;15.74;47.88
72909;BME280;61051;62.624;17.950;2023-05-23T07:01:53;101334.83;;;15.80;47.81
72909;BME280;61051;62.624;17.950;2023-05-23T07:04:21;101329.14;;;15.84;46.87
72909;BME280;61051;62.624;17.950;2023-05-23T07:06:49;101330.03;;;15.87;45.99
72909;BME280;61051;62.624;17.950;2023-05-23T07:09:17;101326.24;;;16.00;45.79
72909;BME280;61051;62.624;17.950;2023-05-23T07:11:45;101330.65;;;16.30;44.59
72909;BME280;61051;62.624;17.950;2023-05-23T07:14:14;101328.40;;;16.24;43.82
72909;BME280;61051;62.624;17.950;2023-05-23T07:16:43;101328.78;;;16.38;44.72
72909;BME280;61051;62.624;17.950;2023-05-23T07:19:12;101326.62;;;16.35;43.64
72909;BME280;61051;62.624;17.950;2023-05-23T07:21:41;101321.99;;;16.56;44.00
72909;BME280;61051;62.624;17.950;2023-05-23T07:24:10;101318.75;;;16.57;44.27
72909;BME280;61051;62.624;17.950;2023-05-23T07:26:38;101315.20;;;16.53;44.26
72909;BME280;61051;62.624;17.950;2023-05-23T07:29:06;101314.68;;;16.22;44.66
72909;BME280;61051;62.624;17.950;2023-05-23T07:31:34;101310.96;;;16.52;43.28
72909;BME280;61051;62.624;17.950;2023-05-23T07:34:02;101309.40;;;16.69;43.55
72909;BME280;61051;62.624;17.950;2023-05-23T07:36:31;101309.48;;;16.81;42.37
72909;BME280;61051;62.624;17.950;2023-05-23T07:39:00;101306.76;;;16.76;42.44
72909;BME280;61051;62.624;17.950;2023-05-23T07:41:28;101302.22;;;16.83;41.98
72909;BME280;61051;62.624;17.950;2023-05-23T07:43:57;101298.45;;;17.20;41.06
72909;BME280;61051;62.624;17.950;2023-05-23T07:46:26;101296.65;;;17.25;40.93
72909;BME280;61051;62.624;17.950;2023-05-23T07:48:54;101293.96;;;17.68;40.75
72909;BME280;61051;62.624;17.950;2023-05-23T07:51:22;101294.58;;;17.71;41.01
72909;BME280;61051;62.624;17.950;2023-05-23T07:53:51;101288.68;;;17.51;42.16
72909;BME280;61051;62.624;17.950;2023-05-23T07:56:19;101288.02;;;17.27;41.05
72909;BME280;61051;62.624;17.950;2023-05-23T07:58:47;101289.55;;;17.50;41.95
72909;BME280;61051;62.624;17.950;2023-05-23T08:01:16;101290.36;;;17.48;41.88
72909;BME280;61051;62.624;17.950;2023-05-23T08:03:44;101297.58;;;17.70;40.94
72909;BME280;61051;62.624;17.950;2023-05-23T08:06:13;101296.79;;;18.02;40.00
72909;BME280;61051;62.624;17.950;2023-05-23T08:08:42;101295.24;;;17.94;40.25
72909;BME280;61051;62.624;17.950;2023-05-23T08:11:10;101297.87;;;18.33;39.71
72909;BME280;61051;62.624;17.950;2023-05-23T08:13:38;101303.44;;;18.44;37.71
72909;BME280;61051;62.624;17.950;2023-05-23T08:16:06;101306.77;;;18.67;35.91
72909;BME280;61051;62.624;17.950;2023-05-23T08:18:34;101309.61;;;18.30;35.68
72909;BME280;61051;62.624;17.950;2023-05-23T08:21:02;101317.57;;;17.99;36.60
72909;BME280;61051;62.624;17.950;2023-05-23T08:23:30;101316.67;;;18.00;36.07
72909;BME280;61051;62.624;17.950;2023-05-23T08:25:59;101315.95;;;17.85;34.43
72909;BME280;61051;62.624;17.950;2023-05-23T08:28:27;101318.36;;;17.69;35.17
72909;BME280;61051;62.624;17.950;2023-05-23T08:30:55;101320.78;;;17.62;34.06
72909;BME280;61051;62.624;17.950;2023-05-23T08:33:25;101319.78;;;17.55;32.92
72909;BME280;61051;62.624;17.950;2023-05-23T08:35:53;101319.41;;;17.43;35.20
72909;BME280;61051;62.624;17.950;2023-05-23T08:38:21;101324.34;;;17.57;35.46
72909;BME280;61051;62.624;17.950;2023-05-23T08:40:50;101321.85;;;17.73;35.07
72909;BME280;61051;62.624;17.950;2023-05-23T08:43:19;101321.55;;;17.90;34.90
72909;BME280;61051;62.624;17.950;2023-05-23T08:45:50;101320.08;;;17.87;34.16
72909;BME280;61051;62.624;17.950;2023-05-23T08:48:19;101314.34;;;17.80;34.07
72909;BME280;61051;62.624;17.950;2023-05-23T08:50:49;101316.60;;;17.88;34.97
72909;BME280;61051;62.624;17.950;2023-05-23T08:53:20;101315.83;;;17.79;34.43
72909;BME280;61051;62.624;17.950;2023-05-23T08:55:50;101310.10;;;17.85;34.30
72909;BME280;61051;62.624;17.950;2023-05-23T08:58:19;101311.64;;;17.83;35.05
72909;BME280;61051;62.624;17.950;2023-05-23T09:00:48;101316.16;;;17.81;34.45
72909;BME280;61051;62.624;17.950;2023-05-23T09:03:19;101316.76;;;17.81;34.30
72909;BME280;61051;62.624;17.950;2023-05-23T09:05:47;101317.31;;;18.01;34.98
72909;BME280;61051;62.624;17.950;2023-05-23T09:08:17;101321.58;;;17.98;32.76
72909;BME280;61051;62.624;17.950;2023-05-23T09:10:46;101321.27;;;18.13;33.24
72909;BME280;61051;62.624;17.950;2023-05-23T09:13:15;101319.12;;;18.24;32.93
72909;BME280;61051;62.624;17.950;2023-05-23T09:15:56;101313.61;;;18.30;33.01
72909;BME280;61051;62.624;17.950;2023-05-23T09:18:25;101320.24;;;18.64;32.62
72909;BME280;61051;62.624;17.950;2023-05-23T09:20:53;101320.32;;;18.62;31.81
72909;BME280;61051;62.624;17.950;2023-05-23T09:23:21;101322.69;;;18.75;31.09
72909;BME280;61051;62.624;17.950;2023-05-23T09:25:49;101326.43;;;18.74;31.29
72909;BME280;61051;62.624;17.950;2023-05-23T09:28:17;101326.80;;;18.76;30.10
72909;BME280;61051;62.624;17.950;2023-05-23T09:30:45;101326.46;;;18.83;30.32
72909;BME280;61051;62.624;17.950;2023-05-23T09:33:14;101321.93;;;19.01;29.58
72909;BME280;61051;62.624;17.950;2023-05-23T09:35:43;101325.22;;;19.12;29.52
72909;BME280;61051;62.624;17.950;2023-05-23T09:38:12;101322.70;;;19.08;29.38
72909;BME280;61051;62.624;17.950;2023-05-23T09:40:44;101323.03;;;19.38;30.31
72909;BME280;61051;62.624;17.950;2023-05-23T09:43:16;101323.65;;;19.38;29.45
72909;BME280;61051;62.624;17.950;2023-05-23T09:45:45;101328.92;;;19.44;29.69
72909;BME280;61051;62.624;17.950;2023-05-23T09:48:13;101330.24;;;19.42;28.94
72909;BME280;61051;62.624;17.950;2023-05-23T09:50:41;101332.09;;;19.29;29.21
72909;BME280;61051;62.624;17.950;2023-05-23T09:53:12;101330.34;;;19.16;29.58
72909;BME280;61051;62.624;17.950;2023-05-23T09:55:40;101331.93;;;19.52;29.94
72909;BME280;61051;62.624;17.950;2023-05-23T09:58:09;101332.20;;;19.41;28.48
72909;BME280;61051;62.624;17.950;2023-05-23T10:04:24;101331.96;;;18.73;28.16
72909;BME280;61051;62.624;17.950;2023-05-23T10:07:00;101335.02;;;18.67;29.23
72909;BME280;61051;62.624;17.950;2023-05-23T10:09:36;101329.96;;;19.13;28.61
72909;BME280;61051;62.624;17.950;2023-05-23T10:13:11;101326.28;;;19.16;28.31
72909;BME280;61051;62.624;17.950;2023-05-23T10:15:41;101333.77;;;19.58;29.89
72909;BME280;61051;62.624;17.950;2023-05-23T10:18:14;101336.96;;;19.96;29.69
72909;BME280;61051;62.624;17.950;2023-05-23T10:20:48;101335.96;;;19.71;29.81
72909;BME280;61051;62.624;17.950;2023-05-23T10:23:17;101331.66;;;19.78;29.55
72909;BME280;61051;62.624;17.950;2023-05-23T10:25:47;101325.17;;;20.35;29.09
72909;BME280;61051;62.624;17.950;2023-05-23T10:28:17;101330.16;;;20.84;28.38
72909;BME280;61051;62.624;17.950;2023-05-23T10:30:46;101327.68;;;21.05;29.02
72909;BME280;61051;62.624;17.950;2023-05-23T10:33:16;101322.97;;;21.14;28.34
72909;BME280;61051;62.624;17.950;2023-05-23T10:35:52;101324.20;;;21.13;27.99
72909;BME280;61051;62.624;17.950;2023-05-23T10:38:30;101320.25;;;21.01;28.34
72909;BME280;61051;62.624;17.950;2023-05-23T10:41:08;101318.66;;;21.09;28.17
72909;BME280;61051;62.624;17.950;2023-05-23T10:43:44;101313.15;;;21.36;29.31
72909;BME280;61051;62.624;17.950;2023-05-23T10:46:17;101316.68;;;21.69;27.74
72909;BME280;61051;62.624;17.950;2023-05-23T10:48:47;101312.67;;;21.86;28.45
72909;BME280;61051;62.624;17.950;2023-05-23T10:51:15;101310.68;;;22.27;28.84
72909;BME280;61051;62.624;17.950;2023-05-23T10:53:44;101304.50;;;22.58;28.64
72909;BME280;61051;62.624;17.950;2023-05-23T10:56:19;101300.65;;;22.20;29.82
72909;BME280;61051;62.624;17.950;2023-05-23T10:58:51;101298.98;;;21.90;30.26
72909;BME280;61051;62.624;17.950;2023-05-23T11:01:21;101298.78;;;21.54;31.43
72909;BME280;61051;62.624;17.950;2023-05-23T11:03:52;101297.03;;;21.05;32.40
72909;BME280;61051;62.624;17.950;2023-05-23T11:06:31;101292.20;;;21.38;31.13
72909;BME280;61051;62.624;17.950;2023-05-23T11:09:03;101290.95;;;21.72;32.74
72909;BME280;61051;62.624;17.950;2023-05-23T11:12:05;101290.13;;;21.97;32.01
72909;BME280;61051;62.624;17.950;2023-05-23T11:14:51;101288.67;;;21.67;31.22
72909;BME280;61051;62.624;17.950;2023-05-23T11:17:30;101291.70;;;21.61;31.95
72909;BME280;61051;62.624;17.950;2023-05-23T11:20:02;101289.50;;;21.72;31.45
72909;BME280;61051;62.624;17.950;2023-05-23T11:22:31;101281.35;;;22.28;31.01
72909;BME280;61051;62.624;17.950;2023-05-23T11:25:02;101282.55;;;22.74;30.81
72909;BME280;61051;62.624;17.950;2023-05-23T11:27:34;101278.37;;;23.19;30.51
72909;BME280;61051;62.624;17.950;2023-05-23T11:30:06;101278.29;;;23.59;30.13
72909;BME280;61051;62.624;17.950;2023-05-23T11:32:35;101264.03;;;25.11;29.20
72909;BME280;61051;62.624;17.950;2023-05-23T11:35:05;101258.70;;;25.38;27.27
72909;BME280;61051;62.624;17.950;2023-05-23T11:37:35;101262.35;;;25.07;28.50
72909;BME280;61051;62.624;17.950;2023-05-23T11:40:39;101269.46;;;24.36;29.44
72909;BME280;61051;62.624;17.950;2023-05-23T11:43:10;101267.91;;;24.76;29.87
72909;BME280;61051;62.624;17.950;2023-05-23T11:45:39;101268.11;;;25.96;28.58
72909;BME280;61051;62.624;17.950;2023-05-23T11:48:09;101266.65;;;26.59;28.20
72909;BME280;61051;62.624;17.950;2023-05-23T11:50:47;101263.45;;;26.95;27.16
72909;BME280;61051;62.624;17.950;2023-05-23T11:53:18;101263.94;;;27.44;26.87
72909;BME280;61051;62.624;17.950;2023-05-23T11:55:48;101261.18;;;27.05;26.78
72909;BME280;61051;62.624;17.950;2023-05-23T11:58:19;101256.72;;;26.82;26.89
72909;BME280;61051;62.624;17.950;2023-05-23T12:00:47;101262.71;;;26.76;27.17
72909;BME280;61051;62.624;17.950;2023-05-23T12:03:16;101252.68;;;26.76;27.30
72909;BME280;61051;62.624;17.950;2023-05-23T12:05:44;101255.58;;;27.25;26.20
72909;BME280;61051;62.624;17.950;2023-05-23T12:08:13;101256.69;;;27.87;25.76
72909;BME280;61051;62.624;17.950;2023-05-23T12:10:50;101248.54;;;28.87;24.98
72909;BME280;61051;62.624;17.950;2023-05-23T12:13:22;101253.68;;;28.98;24.32
72909;BME280;61051;62.624;17.950;2023-05-23T12:15:53;101254.51;;;29.03;24.80
72909;BME280;61051;62.624;17.950;2023-05-23T12:18:22;101253.34;;;29.19;23.99
72909;BME280;61051;62.624;17.950;2023-05-23T12:20:52;101257.46;;;29.83;23.27
72909;BME280;61051;62.624;17.950;2023-05-23T12:23:21;101261.97;;;29.28;23.48
72909;BME280;61051;62.624;17.950;2023-05-23T12:25:51;101257.61;;;28.77;24.55
72909;BME280;61051;62.624;17.950;2023-05-23T12:28:20;101261.55;;;28.75;24.72
72909;BME280;61051;62.624;17.950;2023-05-23T12:30:49;101253.04;;;29.50;24.08
72909;BME280;61051;62.624;17.950;2023-05-23T12:33:18;101250.50;;;29.79;23.47
72909;BME280;61051;62.624;17.950;2023-05-23T12:35:47;101253.94;;;29.48;23.56
72909;BME280;61051;62.624;17.950;2023-05-23T12:38:16;101268.12;;;29.74;23.17
72909;BME280;61051;62.624;17.950;2023-05-23T12:40:44;101272.00;;;29.77;23.27
72909;BME280;61051;62.624;17.950;2023-05-23T12:43:14;101276.23;;;29.31;23.67
72909;BME280;61051;62.624;17.950;2023-05-23T12:45:43;101282.41;;;28.97;24.01
72909;BME280;61051;62.624;17.950;2023-05-23T12:48:11;101285.73;;;28.61;24.43
72909;BME280;61051;62.624;17.950;2023-05-23T12:50:39;101289.61;;;28.08;25.02
72909;BME280;61051;62.624;17.950;2023-05-23T12:53:07;101289.08;;;28.48;24.62
72909;BME280;61051;62.624;17.950;2023-05-23T12:55:36;101286.39;;;28.27;24.51
72909;BME280;61051;62.624;17.950;2023-05-23T12:58:05;101294.05;;;28.13;24.67
72909;BME280;61051;62.624;17.950;2023-05-23T13:00:34;101288.94;;;27.95;24.96
72909;BME280;61051;62.624;17.950;2023-05-23T13:03:03;101283.14;;;28.71;24.31
72909;BME280;61051;62.624;17.950;2023-05-23T13:05:32;101287.32;;;28.44;24.24